sensor_id;sensor_type;location;lat;lon;timestamp;P1;P2;P0
56495;PMS5003;42804;55.762;38.084;2023-09-19T00:01:01;48.80;42.60;27.80
56495;PMS5003;42804;55.762;38.084;2023-09-19T00:03:31;49.00;42.00;26.60
56495;PMS5003;42804;55.762;38.084;2023-09-19T00:05:59;46.50;39.75;25.50
56495;PMS5003;42804;55.762;38.084;2023-09-19T00:08:28;47.40;39.20;26.80
56495;PMS5003;42804;55.762;38.084;2023-09-19T00:10:56;45.50;39.00;24.75
56495;PMS5003;42804;55.762;38.084;2023-09-19T00:13:29;46.25;40.50;25.50
56495;PMS5003;42804;55.762;38.084;2023-09-19T00:15:58;42.25;36.25;23.25
56495;PMS5003;42804;55.762;38.084;2023-09-19T00:18:27;46.00;39.75;26.00
56495;PMS5003;42804;55.762;38.084;2023-09-19T00:21:00;42.25;41.50;27.25
56495;PMS5003;42804;55.762;38.084;2023-09-19T00:23:29;35.00;30.25;19.00
56495;PMS5003;42804;55.762;38.084;2023-09-19T00:25:58;47.00;42.00;25.00
56495;PMS5003;42804;55.762;38.084;2023-09-19T00:28:27;45.00;38.50;25.25
56495;PMS5003;42804;55.762;38.084;2023-09-19T00:30:57;36.25;33.50;23.00
56495;PMS5003;42804;55.762;38.084;2023-09-19T00:33:28;43.00;38.00;25.00
56495;PMS5003;42804;55.762;38.084;2023-09-19T00:35:57;47.25;40.75;25.50
56495;PMS5003;42804;55.762;38.084;2023-09-19T00:38:27;42.75;40.50;26.75
56495;PMS5003;42804;55.762;38.084;2023-09-19T00:40:55;41.50;36.00;23.00
56495;PMS5003;42804;55.762;38.084;2023-09-19T00:43:26;42.25;34.00;22.50
56495;PMS5003;42804;55.762;38.084;2023-09-19T00:45:56;39.00;37.00;24.50
56495;PMS5003;42804;55.762;38.084;2023-09-19T00:48:27;38.25;35.25;23.00
56495;PMS5003;42804;55.762;38.084;2023-09-19T00:50:56;43.25;36.75;24.00
56495;PMS5003;42804;55.762;38.084;2023-09-19T00:53:25;27.25;25.00;13.00
56495;PMS5003;42804;55.762;38.084;2023-09-19T00:55:55;26.25;23.50;19.00
56495;PMS5003;42804;55.762;38.084;2023-09-19T00:58:24;38.40;35.20;23.80
56495;PMS5003;42804;55.762;38.084;2023-09-19T01:00:52;27.25;25.00;11.00
56495;PMS5003;42804;55.762;38.084;2023-09-19T01:03:21;35.75;31.50;21.00
56495;PMS5003;42804;55.762;38.084;2023-09-19T01:05:50;49.50;40.50;25.75
56495;PMS5003;42804;55.762;38.084;2023-09-19T01:08:19;38.50;34.25;21.75
56495;PMS5003;42804;55.762;38.084;2023-09-19T01:10:49;41.50;34.75;22.75
56495;PMS5003;42804;55.762;38.084;2023-09-19T01:13:25;45.25;38.75;23.50
56495;PMS5003;42804;55.762;38.084;2023-09-19T01:15:59;39.50;35.50;22.75
56495;PMS5003;42804;55.762;38.084;2023-09-19T01:18:35;38.50;35.50;23.75
56495;PMS5003;42804;55.762;38.084;2023-09-19T01:21:05;37.00;34.75;23.00
56495;PMS5003;42804;55.762;38.084;2023-09-19T01:23:39;32.75;31.50;20.00
56495;PMS5003;42804;55.762;38.084;2023-09-19T01:26:24;34.50;32.00;23.00
56495;PMS5003;42804;55.762;38.084;2023-09-19T01:29:06;36.50;32.50;22.00
56495;PMS5003;42804;55.762;38.084;2023-09-19T01:31:42;38.00;31.25;19.75
56495;PMS5003;42804;55.762;38.084;2023-09-19T01:34:11;32.25;28.50;19.50
56495;PMS5003;42804;55.762;38.084;2023-09-19T01:36:39;34.25;31.50;20.00
56495;PMS5003;42804;55.762;38.084;2023-09-19T01:39:09;30.25;29.50;20.25
56495;PMS5003;42804;55.762;38.084;2023-09-19T01:41:47;35.25;32.00;19.75
56495;PMS5003;42804;55.762;38.084;2023-09-19T01:44:22;29.75;28.50;19.25
56495;PMS5003;42804;55.762;38.084;2023-09-19T01:46:53;31.75;28.25;20.25
56495;PMS5003;42804;55.762;38.084;2023-09-19T01:49:29;32.00;31.00;22.25
56495;PMS5003;42804;55.762;38.084;2023-09-19T01:52:04;30.50;28.75;19.50
56495;PMS5003;42804;55.762;38.084;2023-09-19T01:54:36;24.50;22.00;16.00
56495;PMS5003;42804;55.762;38.084;2023-09-19T01:57:09;29.25;28.00;19.50
56495;PMS5003;42804;55.762;38.084;2023-09-19T01:59:43;29.00;27.50;18.50
56495;PMS5003;42804;55.762;38.084;2023-09-19T02:02:15;30.00;29.00;19.75
56495;PMS5003;42804;55.762;38.084;2023-09-19T02:04:45;29.00;28.75;19.00
56495;PMS5003;42804;55.762;38.084;2023-09-19T02:07:13;27.75;25.00;16.00
56495;PMS5003;42804;55.762;38.084;2023-09-19T02:09:42;24.00;23.00;15.25
56495;PMS5003;42804;55.762;38.084;2023-09-19T02:12:10;16.75;15.75;9.00
56495;PMS5003;42804;55.762;38.084;2023-09-19T02:14:38;23.50;20.50;15.00
56495;PMS5003;42804;55.762;38.084;2023-09-19T02:17:06;27.25;24.50;15.25
56495;PMS5003;42804;55.762;38.084;2023-09-19T02:19:39;21.00;20.00;11.75
56495;PMS5003;42804;55.762;38.084;2023-09-19T02:22:07;23.25;23.25;16.00
56495;PMS5003;42804;55.762;38.084;2023-09-19T02:24:37;16.00;13.00;11.00
56495;PMS5003;42804;55.762;38.084;2023-09-19T02:27:05;24.50;21.00;15.00
56495;PMS5003;42804;55.762;38.084;2023-09-19T02:29:34;24.25;21.50;12.00
56495;PMS5003;42804;55.762;38.084;2023-09-19T02:32:03;24.75;23.00;14.75
56495;PMS5003;42804;55.762;38.084;2023-09-19T02:34:31;20.75;20.25;13.75
56495;PMS5003;42804;55.762;38.084;2023-09-19T02:37:04;25.00;24.25;17.25
56495;PMS5003;42804;55.762;38.084;2023-09-19T02:39:33;23.25;20.00;13.25
56495;PMS5003;42804;55.762;38.084;2023-09-19T02:42:01;20.00;19.00;13.00
56495;PMS5003;42804;55.762;38.084;2023-09-19T02:44:30;18.00;18.00;11.00
56495;PMS5003;42804;55.762;38.084;2023-09-19T02:46:59;22.75;20.25;14.25
56495;PMS5003;42804;55.762;38.084;2023-09-19T02:49:27;20.00;18.50;13.50
56495;PMS5003;42804;55.762;38.084;2023-09-19T02:51:56;19.25;17.75;9.50
56495;PMS5003;42804;55.762;38.084;2023-09-19T02:54:26;22.50;20.75;13.00
56495;PMS5003;42804;55.762;38.084;2023-09-19T02:56:55;18.25;16.75;12.00
56495;PMS5003;42804;55.762;38.084;2023-09-19T02:59:23;16.00;15.25;11.25
56495;PMS5003;42804;55.762;38.084;2023-09-19T03:01:51;16.25;15.50;9.75
56495;PMS5003;42804;55.762;38.084;2023-09-19T03:04:21;19.50;18.25;11.50
56495;PMS5003;42804;55.762;38.084;2023-09-19T03:06:49;19.00;15.75;10.50
56495;PMS5003;42804;55.762;38.084;2023-09-19T03:09:18;17.75;17.75;11.50
56495;PMS5003;42804;55.762;38.084;2023-09-19T03:11:48;18.25;16.75;10.75
56495;PMS5003;42804;55.762;38.084;2023-09-19T03:14:16;18.75;16.75;9.50
56495;PMS5003;42804;55.762;38.084;2023-09-19T03:16:47;16.75;15.25;8.50
56495;PMS5003;42804;55.762;38.084;2023-09-19T03:19:16;19.25;17.00;9.75
56495;PMS5003;42804;55.762;38.084;2023-09-19T03:21:45;20.75;17.75;10.50
56495;PMS5003;42804;55.762;38.084;2023-09-19T03:24:13;16.50;13.50;5.00
56495;PMS5003;42804;55.762;38.084;2023-09-19T03:26:41;18.00;16.67;11.33
56495;PMS5003;42804;55.762;38.084;2023-09-19T03:29:11;16.00;14.00;9.25
56495;PMS5003;42804;55.762;38.084;2023-09-19T03:31:40;17.75;16.00;10.75
56495;PMS5003;42804;55.762;38.084;2023-09-19T03:34:09;8.75;7.75;4.75
56495;PMS5003;42804;55.762;38.084;2023-09-19T03:36:37;17.50;16.50;12.00
56495;PMS5003;42804;55.762;38.084;2023-09-19T03:39:05;16.00;15.50;10.50
56495;PMS5003;42804;55.762;38.084;2023-09-19T03:41:34;17.50;15.25;10.00
56495;PMS5003;42804;55.762;38.084;2023-09-19T03:44:04;15.25;13.75;9.00
56495;PMS5003;42804;55.762;38.084;2023-09-19T03:46:35;16.50;16.50;12.75
56495;PMS5003;42804;55.762;38.084;2023-09-19T03:49:03;17.50;15.50;9.50
56495;PMS5003;42804;55.762;38.084;2023-09-19T03:51:32;17.25;17.00;11.00
56495;PMS5003;42804;55.762;38.084;2023-09-19T03:54:03;17.00;15.50;11.50
56495;PMS5003;42804;55.762;38.084;2023-09-19T03:56:31;21.25;17.75;12.50
56495;PMS5003;42804;55.762;38.084;2023-09-19T03:59:00;16.00;15.50;10.00
56495;PMS5003;42804;55.762;38.084;2023-09-19T04:01:28;16.00;15.00;9.75
56495;PMS5003;42804;55.762;38.084;2023-09-19T04:04:00;18.00;17.25;10.50
56495;PMS5003;42804;55.762;38.084;2023-09-19T04:06:36;21.00;18.75;12.00
56495;PMS5003;42804;55.762;38.084;2023-09-19T04:09:04;17.50;16.00;10.00
56495;PMS5003;42804;55.762;38.084;2023-09-19T04:11:33;15.75;13.75;10.00
56495;PMS5003;42804;55.762;38.084;2023-09-19T04:14:02;16.75;14.50;10.50
56495;PMS5003;42804;55.762;38.084;2023-09-19T04:16:31;18.75;17.50;10.75
56495;PMS5003;42804;55.762;38.084;2023-09-19T04:19:02;16.00;15.00;9.50
56495;PMS5003;42804;55.762;38.084;2023-09-19T04:21:30;19.00;19.00;11.25
56495;PMS5003;42804;55.762;38.084;2023-09-19T04:23:58;16.00;16.00;10.00
56495;PMS5003;42804;55.762;38.084;2023-09-19T04:26:26;15.25;15.00;9.50
56495;PMS5003;42804;55.762;38.084;2023-09-19T04:28:56;18.75;17.00;11.25
56495;PMS5003;42804;55.762;38.084;2023-09-19T04:31:25;18.25;17.25;11.50
56495;PMS5003;42804;55.762;38.084;2023-09-19T04:33:54;21.75;19.25;12.25
56495;PMS5003;42804;55.762;38.084;2023-09-19T04:36:24;16.25;16.25;12.25
56495;PMS5003;42804;55.762;38.084;2023-09-19T04:39:01;14.75;13.75;8.00
56495;PMS5003;42804;55.762;38.084;2023-09-19T04:41:31;15.00;15.00;9.25
56495;PMS5003;42804;55.762;38.084;2023-09-19T04:43:59;16.50;15.25;10.75
56495;PMS5003;42804;55.762;38.084;2023-09-19T04:46:28;18.25;18.25;10.50
56495;PMS5003;42804;55.762;38.084;2023-09-19T04:48:57;22.00;20.75;14.25
56495;PMS5003;42804;55.762;38.084;2023-09-19T04:51:27;22.25;20.00;11.25
56495;PMS5003;42804;55.762;38.084;2023-09-19T04:54:00;22.50;20.75;14.00
56495;PMS5003;42804;55.762;38.084;2023-09-19T04:56:29;20.00;19.00;12.75
56495;PMS5003;42804;55.762;38.084;2023-09-19T04:58:59;22.50;18.75;13.00
56495;PMS5003;42804;55.762;38.084;2023-09-19T05:01:26;18.50;16.25;9.00
56495;PMS5003;42804;55.762;38.084;2023-09-19T05:03:55;16.00;16.00;11.00
56495;PMS5003;42804;55.762;38.084;2023-09-19T05:06:23;19.50;19.00;13.00
56495;PMS5003;42804;55.762;38.084;2023-09-19T05:08:54;21.00;19.00;13.25
56495;PMS5003;42804;55.762;38.084;2023-09-19T05:11:22;14.00;12.00;6.75
56495;PMS5003;42804;55.762;38.084;2023-09-19T05:13:51;16.00;16.00;8.50
56495;PMS5003;42804;55.762;38.084;2023-09-19T05:16:20;7.25;6.75;1.00
56495;PMS5003;42804;55.762;38.084;2023-09-19T05:18:49;21.00;20.50;14.00
56495;PMS5003;42804;55.762;38.084;2023-09-19T05:21:17;19.00;18.25;13.00
56495;PMS5003;42804;55.762;38.084;2023-09-19T05:23:46;18.50;17.75;13.75
56495;PMS5003;42804;55.762;38.084;2023-09-19T05:26:15;23.25;21.75;14.75
56495;PMS5003;42804;55.762;38.084;2023-09-19T05:28:44;23.50;21.00;14.00
56495;PMS5003;42804;55.762;38.084;2023-09-19T05:31:14;23.75;22.00;15.00
56495;PMS5003;42804;55.762;38.084;2023-09-19T05:33:43;18.50;18.00;12.75
56495;PMS5003;42804;55.762;38.084;2023-09-19T05:36:12;20.75;18.50;13.50
56495;PMS5003;42804;55.762;38.084;2023-09-19T05:38:42;16.00;15.50;11.25
56495;PMS5003;42804;55.762;38.084;2023-09-19T05:41:11;17.50;16.25;10.00
56495;PMS5003;42804;55.762;38.084;2023-09-19T05:43:42;19.00;18.00;12.50
56495;PMS5003;42804;55.762;38.084;2023-09-19T05:46:10;20.75;19.00;14.75
56495;PMS5003;42804;55.762;38.084;2023-09-19T05:48:38;19.25;18.75;11.75
56495;PMS5003;42804;55.762;38.084;2023-09-19T05:51:08;21.25;20.25;15.50
56495;PMS5003;42804;55.762;38.084;2023-09-19T05:53:36;20.75;19.00;14.50
56495;PMS5003;42804;55.762;38.084;2023-09-19T05:56:05;19.75;19.25;14.50
56495;PMS5003;42804;55.762;38.084;2023-09-19T05:58:33;22.00;21.50;16.00
56495;PMS5003;42804;55.762;38.084;2023-09-19T06:01:03;19.00;17.25;10.00
56495;PMS5003;42804;55.762;38.084;2023-09-19T06:03:31;24.00;23.25;16.50
56495;PMS5003;42804;55.762;38.084;2023-09-19T06:05:59;24.00;22.00;16.00
56495;PMS5003;42804;55.762;38.084;2023-09-19T06:08:27;22.00;21.00;15.00
56495;PMS5003;42804;55.762;38.084;2023-09-19T06:10:57;23.75;21.50;15.00
56495;PMS5003;42804;55.762;38.084;2023-09-19T06:13:27;22.00;21.75;13.75
56495;PMS5003;42804;55.762;38.084;2023-09-19T06:15:56;19.50;18.25;12.00
56495;PMS5003;42804;55.762;38.084;2023-09-19T06:18:27;20.25;19.00;13.00
56495;PMS5003;42804;55.762;38.084;2023-09-19T06:20:56;22.50;21.25;15.00
56495;PMS5003;42804;55.762;38.084;2023-09-19T06:23:25;21.75;20.00;14.00
56495;PMS5003;42804;55.762;38.084;2023-09-19T06:25:56;19.75;19.00;11.75
56495;PMS5003;42804;55.762;38.084;2023-09-19T06:28:24;20.75;19.75;11.75
56495;PMS5003;42804;55.762;38.084;2023-09-19T06:30:55;22.75;21.25;14.25
56495;PMS5003;42804;55.762;38.084;2023-09-19T06:33:24;23.75;21.50;15.00
56495;PMS5003;42804;55.762;38.084;2023-09-19T06:35:53;23.75;21.25;14.50
56495;PMS5003;42804;55.762;38.084;2023-09-19T06:38:26;22.25;21.25;15.50
56495;PMS5003;42804;55.762;38.084;2023-09-19T06:40:54;21.75;21.00;14.00
56495;PMS5003;42804;55.762;38.084;2023-09-19T06:43:24;22.50;18.75;11.50
56495;PMS5003;42804;55.762;38.084;2023-09-19T06:45:53;12.75;12.00;4.25
56495;PMS5003;42804;55.762;38.084;2023-09-19T06:48:22;21.75;21.25;14.75
56495;PMS5003;42804;55.762;38.084;2023-09-19T06:50:54;20.75;20.75;13.75
56495;PMS5003;42804;55.762;38.084;2023-09-19T06:53:23;22.75;22.75;15.00
56495;PMS5003;42804;55.762;38.084;2023-09-19T06:55:51;26.75;26.00;15.75
56495;PMS5003;42804;55.762;38.084;2023-09-19T06:58:20;20.50;18.25;11.50
56495;PMS5003;42804;55.762;38.084;2023-09-19T07:00:48;19.00;18.50;13.25
56495;PMS5003;42804;55.762;38.084;2023-09-19T07:03:20;19.25;19.25;13.50
56495;PMS5003;42804;55.762;38.084;2023-09-19T07:05:54;19.25;18.75;13.00
56495;PMS5003;42804;55.762;38.084;2023-09-19T07:08:23;21.25;19.75;14.00
56495;PMS5003;42804;55.762;38.084;2023-09-19T07:10:51;16.50;16.00;9.25
56495;PMS5003;42804;55.762;38.084;2023-09-19T07:13:21;18.25;18.00;14.25
56495;PMS5003;42804;55.762;38.084;2023-09-19T07:15:49;15.75;14.75;11.50
56495;PMS5003;42804;55.762;38.084;2023-09-19T07:18:17;17.00;17.00;11.75
56495;PMS5003;42804;55.762;38.084;2023-09-19T07:20:47;20.25;18.00;12.75
56495;PMS5003;42804;55.762;38.084;2023-09-19T07:23:18;23.00;21.00;15.00
56495;PMS5003;42804;55.762;38.084;2023-09-19T07:25:47;20.25;17.25;14.50
56495;PMS5003;42804;55.762;38.084;2023-09-19T07:28:16;22.75;21.75;15.75
56495;PMS5003;42804;55.762;38.084;2023-09-19T07:30:45;25.50;25.00;17.00
56495;PMS5003;42804;55.762;38.084;2023-09-19T07:33:13;24.00;22.50;16.00
56495;PMS5003;42804;55.762;38.084;2023-09-19T07:35:45;23.00;21.50;16.50
56495;PMS5003;42804;55.762;38.084;2023-09-19T07:38:13;19.00;18.25;13.25
56495;PMS5003;42804;55.762;38.084;2023-09-19T07:40:43;23.00;22.75;15.00
56495;PMS5003;42804;55.762;38.084;2023-09-19T07:43:11;23.25;23.00;15.25
56495;PMS5003;42804;55.762;38.084;2023-09-19T07:45:40;23.25;22.75;15.25
56495;PMS5003;42804;55.762;38.084;2023-09-19T07:48:08;24.00;21.75;15.50
56495;PMS5003;42804;55.762;38.084;2023-09-19T07:50:41;16.25;15.50;11.00
56495;PMS5003;42804;55.762;38.084;2023-09-19T07:53:11;19.75;19.00;14.00
56495;PMS5003;42804;55.762;38.084;2023-09-19T07:55:43;25.75;24.25;16.00
56495;PMS5003;42804;55.762;38.084;2023-09-19T07:58:15;20.75;19.25;14.00
56495;PMS5003;42804;55.762;38.084;2023-09-19T08:00:43;24.50;24.25;16.75
56495;PMS5003;42804;55.762;38.084;2023-09-19T08:03:13;24.75;23.00;15.50
56495;PMS5003;42804;55.762;38.084;2023-09-19T08:05:44;24.75;22.50;15.50
56495;PMS5003;42804;55.762;38.084;2023-09-19T08:08:15;22.25;20.75;15.00
56495;PMS5003;42804;55.762;38.084;2023-09-19T08:10:53;19.75;19.50;11.00
56495;PMS5003;42804;55.762;38.084;2023-09-19T08:13:23;22.25;21.50;15.00
56495;PMS5003;42804;55.762;38.084;2023-09-19T08:15:52;23.25;22.25;16.00
56495;PMS5003;42804;55.762;38.084;2023-09-19T08:18:23;22.00;22.00;15.00
56495;PMS5003;42804;55.762;38.084;2023-09-19T08:20:53;22.00;20.75;14.00
56495;PMS5003;42804;55.762;38.084;2023-09-19T08:23:21;22.25;21.50;16.75
56495;PMS5003;42804;55.762;38.084;2023-09-19T08:25:50;21.25;20.50;13.75
56495;PMS5003;42804;55.762;38.084;2023-09-19T08:28:20;17.00;16.00;10.50
56495;PMS5003;42804;55.762;38.084;2023-09-19T08:30:51;22.25;21.00;15.00
56495;PMS5003;42804;55.762;38.084;2023-09-19T08:33:22;19.75;18.75;12.00
56495;PMS5003;42804;55.762;38.084;2023-09-19T08:35:51;22.75;21.50;14.25
56495;PMS5003;42804;55.762;38.084;2023-09-19T08:38:24;20.25;20.25;13.00
56495;PMS5003;42804;55.762;38.084;2023-09-19T08:40:57;20.00;19.50;13.25
56495;PMS5003;42804;55.762;38.084;2023-09-19T08:43:27;20.50;20.50;14.00
56495;PMS5003;42804;55.762;38.084;2023-09-19T08:45:57;21.50;19.25;13.00
56495;PMS5003;42804;55.762;38.084;2023-09-19T08:48:26;21.00;21.00;13.00
56495;PMS5003;42804;55.762;38.084;2023-09-19T08:51:02;17.00;17.00;12.00
56495;PMS5003;42804;55.762;38.084;2023-09-19T08:53:35;21.25;19.25;14.25
56495;PMS5003;42804;55.762;38.084;2023-09-19T08:56:08;17.25;17.25;10.50
56495;PMS5003;42804;55.762;38.084;2023-09-19T08:58:41;15.25;14.25;12.00
56495;PMS5003;42804;55.762;38.084;2023-09-19T09:01:17;21.25;20.75;15.00
56495;PMS5003;42804;55.762;38.084;2023-09-19T09:03:52;23.75;22.75;15.00
56495;PMS5003;42804;55.762;38.084;2023-09-19T09:06:24;19.75;19.50;12.25
56495;PMS5003;42804;55.762;38.084;2023-09-19T09:08:58;18.75;18.00;12.00
56495;PMS5003;42804;55.762;38.084;2023-09-19T09:11:27;20.75;18.75;11.75
56495;PMS5003;42804;55.762;38.084;2023-09-19T09:13:58;21.00;20.75;14.00
56495;PMS5003;42804;55.762;38.084;2023-09-19T09:16:29;20.50;19.50;12.00
56495;PMS5003;42804;55.762;38.084;2023-09-19T09:19:02;20.00;19.00;13.00
56495;PMS5003;42804;55.762;38.084;2023-09-19T09:21:31;21.50;20.25;14.25
56495;PMS5003;42804;55.762;38.084;2023-09-19T09:26:53;21.00;20.00;12.75
56495;PMS5003;42804;55.762;38.084;2023-09-19T09:29:39;20.50;18.50;13.00
56495;PMS5003;42804;55.762;38.084;2023-09-19T09:32:21;18.75;18.25;12.00
56495;PMS5003;42804;55.762;38.084;2023-09-19T09:34:55;20.50;20.00;12.25
56495;PMS5003;42804;55.762;38.084;2023-09-19T09:37:29;22.25;20.00;15.00
56495;PMS5003;42804;55.762;38.084;2023-09-19T09:40:00;19.50;19.00;14.00
56495;PMS5003;42804;55.762;38.084;2023-09-19T09:42:56;22.50;20.00;16.00
56495;PMS5003;42804;55.762;38.084;2023-09-19T09:45:31;22.25;21.00;14.25
56495;PMS5003;42804;55.762;38.084;2023-09-19T09:48:06;22.00;20.75;15.75
56495;PMS5003;42804;55.762;38.084;2023-09-19T09:50:48;24.00;23.00;18.00
56495;PMS5003;42804;55.762;38.084;2023-09-19T09:53:27;23.75;22.75;15.25
56495;PMS5003;42804;55.762;38.084;2023-09-19T09:56:03;23.50;23.50;16.00
56495;PMS5003;42804;55.762;38.084;2023-09-19T09:58:37;22.00;20.00;14.50
56495;PMS5003;42804;55.762;38.084;2023-09-19T10:01:11;28.25;23.25;17.00
56495;PMS5003;42804;55.762;38.084;2023-09-19T10:03:43;20.00;19.50;14.25
56495;PMS5003;42804;55.762;38.084;2023-09-19T10:06:20;23.00;22.50;17.00
56495;PMS5003;42804;55.762;38.084;2023-09-19T10:08:58;23.50;22.00;17.00
56495;PMS5003;42804;55.762;38.084;2023-09-19T10:11:42;22.75;21.75;15.00
56495;PMS5003;42804;55.762;38.084;2023-09-19T10:14:13;23.25;22.00;16.25
56495;PMS5003;42804;55.762;38.084;2023-09-19T10:16:58;20.75;20.00;14.00
56495;PMS5003;42804;55.762;38.084;2023-09-19T10:19:36;23.25;23.25;17.00
56495;PMS5003;42804;55.762;38.084;2023-09-19T10:22:12;21.25;20.75;16.25
56495;PMS5003;42804;55.762;38.084;2023-09-19T10:24:48;23.75;22.75;16.00
56495;PMS5003;42804;55.762;38.084;2023-09-19T10:27:29;23.75;23.50;18.00
56495;PMS5003;42804;55.762;38.084;2023-09-19T10:30:10;24.25;23.75;16.75
56495;PMS5003;42804;55.762;38.084;2023-09-19T10:33:15;22.50;22.00;15.75
56495;PMS5003;42804;55.762;38.084;2023-09-19T10:35:49;21.75;21.00;15.25
56495;PMS5003;42804;55.762;38.084;2023-09-19T10:38:26;23.25;22.25;13.50
56495;PMS5003;42804;55.762;38.084;2023-09-19T10:40:58;21.00;20.75;13.75
56495;PMS5003;42804;55.762;38.084;2023-09-19T10:43:41;23.00;21.75;14.75
56495;PMS5003;42804;55.762;38.084;2023-09-19T10:46:14;21.75;19.00;13.25
56495;PMS5003;42804;55.762;38.084;2023-09-19T10:48:52;21.00;21.00;14.75
56495;PMS5003;42804;55.762;38.084;2023-09-19T10:51:23;23.75;21.25;15.25
56495;PMS5003;42804;55.762;38.084;2023-09-19T10:54:01;20.75;19.25;14.25
56495;PMS5003;42804;55.762;38.084;2023-09-19T10:56:49;22.25;20.00;13.50
56495;PMS5003;42804;55.762;38.084;2023-09-19T10:59:21;17.75;17.75;12.00
56495;PMS5003;42804;55.762;38.084;2023-09-19T11:01:59;19.25;19.25;12.75
56495;PMS5003;42804;55.762;38.084;2023-09-19T11:04:45;22.00;21.25;13.50
56495;PMS5003;42804;55.762;38.084;2023-09-19T11:07:25;21.75;20.75;14.00
56495;PMS5003;42804;55.762;38.084;2023-09-19T11:09:56;20.50;20.50;15.75
56495;PMS5003;42804;55.762;38.084;2023-09-19T11:24:31;24.50;23.25;15.00
56495;PMS5003;42804;55.762;38.084;2023-09-19T11:27:13;20.25;20.00;13.50
56495;PMS5003;42804;55.762;38.084;2023-09-19T11:29:46;23.50;21.25;15.00
56495;PMS5003;42804;55.762;38.084;2023-09-19T11:35:14;24.00;23.50;15.00
56495;PMS5003;42804;55.762;38.084;2023-09-19T11:40:46;23.25;22.50;16.25
56495;PMS5003;42804;55.762;38.084;2023-09-19T11:43:29;22.25;22.25;16.75
56495;PMS5003;42804;55.762;38.084;2023-09-19T11:46:11;23.00;23.00;16.00
56495;PMS5003;42804;55.762;38.084;2023-09-19T11:48:47;23.25;22.00;17.00
56495;PMS5003;42804;55.762;38.084;2023-09-19T11:51:23;27.50;26.50;18.50
56495;PMS5003;42804;55.762;38.084;2023-09-19T11:54:10;30.00;28.75;18.25
56495;PMS5003;42804;55.762;38.084;2023-09-19T11:56:48;26.00;24.25;17.00
56495;PMS5003;42804;55.762;38.084;2023-09-19T11:59:25;26.50;25.50;18.00
56495;PMS5003;42804;55.762;38.084;2023-09-19T12:02:03;24.00;23.00;16.75
56495;PMS5003;42804;55.762;38.084;2023-09-19T12:04:45;22.50;21.25;16.50
56495;PMS5003;42804;55.762;38.084;2023-09-19T12:10:18;23.75;23.25;17.00
56495;PMS5003;42804;55.762;38.084;2023-09-19T12:13:02;27.00;23.75;17.50
56495;PMS5003;42804;55.762;38.084;2023-09-19T12:15:39;22.50;21.50;15.75
56495;PMS5003;42804;55.762;38.084;2023-09-19T12:18:28;23.50;22.75;16.50
56495;PMS5003;42804;55.762;38.084;2023-09-19T12:21:06;23.25;22.25;16.00
56495;PMS5003;42804;55.762;38.084;2023-09-19T12:26:39;24.00;22.75;18.00
56495;PMS5003;42804;55.762;38.084;2023-09-19T12:29:17;24.50;24.50;15.25
56495;PMS5003;42804;55.762;38.084;2023-09-19T12:31:58;21.75;21.00;15.25
56495;PMS5003;42804;55.762;38.084;2023-09-19T12:34:42;22.00;21.00;16.00
56495;PMS5003;42804;55.762;38.084;2023-09-19T12:37:19;25.50;23.25;14.75
56495;PMS5003;42804;55.762;38.084;2023-09-19T12:40:05;28.00;26.50;16.25
56495;PMS5003;42804;55.762;38.084;2023-09-19T12:42:51;26.75;25.75;18.25
56495;PMS5003;42804;55.762;38.084;2023-09-19T12:45:35;26.25;25.75;17.25
56495;PMS5003;42804;55.762;38.084;2023-09-19T12:48:19;25.50;24.25;14.00
56495;PMS5003;42804;55.762;38.084;2023-09-19T12:51:07;22.50;22.25;16.25
56495;PMS5003;42804;55.762;38.084;2023-09-19T12:53:58;23.75;22.00;16.00
56495;PMS5003;42804;55.762;38.084;2023-09-19T12:56:30;26.50;22.75;16.25
56495;PMS5003;42804;55.762;38.084;2023-09-19T12:59:12;25.25;24.00;17.00
56495;PMS5003;42804;55.762;38.084;2023-09-19T13:01:48;27.25;26.50;18.75
56495;PMS5003;42804;55.762;38.084;2023-09-19T13:04:40;22.50;22.25;16.00
56495;PMS5003;42804;55.762;38.084;2023-09-19T13:10:05;24.50;23.00;15.25
56495;PMS5003;42804;55.762;38.084;2023-09-19T13:12:38;25.50;23.75;17.75
56495;PMS5003;42804;55.762;38.084;2023-09-19T13:15:16;26.00;22.75;17.00
56495;PMS5003;42804;55.762;38.084;2023-09-19T13:17:52;24.50;24.25;16.50
56495;PMS5003;42804;55.762;38.084;2023-09-19T13:20:36;23.75;23.50;15.50
56495;PMS5003;42804;55.762;38.084;2023-09-19T13:23:26;22.50;22.50;16.75
56495;PMS5003;42804;55.762;38.084;2023-09-19T13:26:09;25.25;23.25;16.00
56495;PMS5003;42804;55.762;38.084;2023-09-19T13:28:44;25.00;24.00;15.75
56495;PMS5003;42804;55.762;38.084;2023-09-19T13:31:30;24.50;23.00;15.75
56495;PMS5003;42804;55.762;38.084;2023-09-19T13:34:01;26.00;24.75;16.50
56495;PMS5003;42804;55.762;38.084;2023-09-19T13:36:45;24.75;22.25;16.50
56495;PMS5003;42804;55.762;38.084;2023-09-19T13:39:19;21.25;20.75;15.75
56495;PMS5003;42804;55.762;38.084;2023-09-19T13:41:51;25.00;24.50;16.00
56495;PMS5003;42804;55.762;38.084;2023-09-19T13:44:23;24.00;19.75;15.00
56495;PMS5003;42804;55.762;38.084;2023-09-19T13:47:08;22.00;21.00;13.75
56495;PMS5003;42804;55.762;38.084;2023-09-19T13:49:48;25.25;24.00;17.00
56495;PMS5003;42804;55.762;38.084;2023-09-19T13:52:24;21.75;21.25;15.50
56495;PMS5003;42804;55.762;38.084;2023-09-19T13:54:55;19.75;19.75;16.00
56495;PMS5003;42804;55.762;38.084;2023-09-19T13:57:29;21.00;18.50;15.75
56495;PMS5003;42804;55.762;38.084;2023-09-19T14:00:00;23.75;22.00;15.75
56495;PMS5003;42804;55.762;38.084;2023-09-19T14:02:37;26.50;24.50;17.00
56495;PMS5003;42804;55.762;38.084;2023-09-19T14:05:09;24.00;23.00;16.25
56495;PMS5003;42804;55.762;38.084;2023-09-19T14:07:57;25.50;25.00;16.75
56495;PMS5003;42804;55.762;38.084;2023-09-19T14:10:30;23.00;22.75;16.50
56495;PMS5003;42804;55.762;38.084;2023-09-19T14:13:02;24.25;23.75;17.00
56495;PMS5003;42804;55.762;38.084;2023-09-19T14:15:36;24.00;23.50;15.25
56495;PMS5003;42804;55.762;38.084;2023-09-19T14:18:15;24.00;22.50;17.00
56495;PMS5003;42804;55.762;38.084;2023-09-19T14:21:11;26.50;25.25;16.75
56495;PMS5003;42804;55.762;38.084;2023-09-19T14:23:41;23.00;22.50;15.00
56495;PMS5003;42804;55.762;38.084;2023-09-19T14:26:11;22.25;20.75;15.00
56495;PMS5003;42804;55.762;38.084;2023-09-19T14:28:42;21.50;21.25;13.50
56495;PMS5003;42804;55.762;38.084;2023-09-19T14:31:12;21.75;21.00;16.00
56495;PMS5003;42804;55.762;38.084;2023-09-19T14:33:53;22.75;21.75;14.50